createdAt,value
2022-11-01T00:00:25.110Z,29.70
2022-11-01T00:03:17.259Z,29.70
2022-11-01T00:05:50.074Z,31.50
2022-11-01T00:08:22.152Z,29.90
2022-11-01T00:10:54.415Z,25.80
2022-11-01T00:13:26.531Z,25.20
2022-11-01T00:15:58.672Z,28.90
2022-11-01T00:18:30.771Z,25.70
2022-11-01T00:21:02.921Z,24.10
2022-11-01T00:23:35.071Z,28.20
2022-11-01T00:26:07.450Z,29.60
2022-11-01T00:28:39.681Z,29.30
2022-11-01T00:31:12.842Z,26.50
2022-11-01T00:33:45.255Z,31.70
2022-11-01T00:36:17.681Z,29.70
2022-11-01T00:38:52.374Z,35.70
2022-11-01T00:41:24.872Z,27.30
2022-11-01T00:43:57.004Z,23.60
2022-11-01T00:46:29.330Z,30.20
2022-11-01T00:49:01.673Z,23.20
2022-11-01T00:51:33.773Z,24.60
2022-11-01T00:54:06.103Z,25.80
2022-11-01T00:56:38.418Z,28.80
2022-11-01T00:59:10.478Z,26.40
2022-11-01T01:01:42.821Z,23.30
2022-11-01T01:04:14.973Z,21.00
2022-11-01T01:06:47.151Z,17.10
2022-11-01T01:09:19.402Z,14.50
2022-11-01T01:11:51.700Z,16.50
2022-11-01T01:14:27.456Z,16.90
2022-11-01T01:17:02.297Z,17.50
2022-11-01T01:19:34.507Z,19.70
2022-11-01T01:22:06.652Z,22.90
2022-11-01T01:24:38.959Z,21.10
2022-11-01T01:27:11.038Z,22.20
2022-11-01T01:29:44.522Z,18.10
2022-11-01T01:32:17.299Z,16.10
2022-11-01T01:34:49.519Z,18.00
2022-11-01T01:37:22.139Z,17.40
2022-11-01T01:42:30.291Z,16.00
2022-11-01T01:45:31.635Z,16.30
2022-11-01T01:48:12.658Z,18.00
2022-11-01T01:50:48.847Z,16.40
2022-11-01T01:53:24.699Z,14.10
2022-11-01T01:56:00.603Z,13.30
2022-11-01T01:58:34.884Z,16.30
2022-11-01T02:01:07.403Z,20.90
2022-11-01T02:06:13.435Z,14.60
2022-11-01T02:08:48.410Z,15.60
2022-11-01T02:11:21.818Z,17.10
2022-11-01T02:13:54.502Z,17.80
2022-11-01T02:19:37.488Z,15.90
2022-11-01T02:22:14.307Z,16.40
2022-11-01T02:27:55.495Z,17.30
2022-11-01T02:30:27.754Z,18.80
2022-11-01T02:33:07.407Z,18.60
2022-11-01T02:35:48.170Z,20.30
2022-11-01T02:38:25.055Z,21.30
2022-11-01T02:41:03.676Z,23.80
2022-11-01T02:43:41.369Z,25.40
2022-11-01T02:46:32.048Z,24.40
2022-11-01T02:49:05.590Z,24.40
2022-11-01T02:51:39.233Z,20.20
2022-11-01T02:54:18.678Z,19.00
2022-11-01T02:56:51.148Z,17.20
2022-11-01T02:59:26.910Z,17.00
2022-11-01T03:02:10.489Z,19.30
2022-11-01T03:04:43.068Z,18.00
2022-11-01T03:07:16.855Z,13.80
2022-11-01T03:09:48.997Z,15.40
2022-11-01T03:12:25.760Z,14.30
2022-11-01T03:15:02.415Z,14.50
2022-11-01T03:17:39.283Z,16.90
2022-11-01T03:20:16.666Z,14.80
2022-11-01T03:22:52.577Z,13.90
2022-11-01T03:25:41.841Z,15.70
2022-11-01T03:28:19.092Z,15.50
2022-11-01T03:30:55.028Z,16.30
2022-11-01T03:33:28.629Z,13.10
2022-11-01T03:36:03.202Z,16.00
2022-11-01T03:38:38.730Z,14.00
2022-11-01T03:41:14.998Z,16.10
2022-11-01T03:43:47.614Z,14.90
2022-11-01T03:46:19.885Z,16.10
2022-11-01T03:48:52.151Z,16.60
2022-11-01T03:51:24.453Z,13.30
2022-11-01T03:53:56.604Z,15.80
2022-11-01T03:56:28.859Z,15.90
2022-11-01T03:59:01.121Z,16.70
2022-11-01T04:01:33.675Z,20.20
2022-11-01T04:04:06.193Z,20.50
2022-11-01T04:06:38.387Z,18.30
2022-11-01T04:09:11.088Z,19.80
2022-11-01T04:14:31.499Z,14.00
2022-11-01T04:17:21.565Z,17.50
2022-11-01T04:20:11.612Z,20.30
2022-11-01T04:22:43.814Z,18.40
2022-11-01T04:25:15.935Z,16.50
2022-11-01T04:27:48.148Z,18.10
2022-11-01T04:30:20.416Z,22.10
2022-11-01T04:32:52.871Z,19.10
2022-11-01T04:35:25.384Z,18.80
2022-11-01T04:38:01.296Z,18.60
2022-11-01T04:40:34.052Z,18.40
2022-11-01T04:43:06.251Z,17.90
2022-11-01T04:45:40.952Z,22.70
2022-11-01T04:48:16.925Z,19.20
2022-11-01T04:50:49.158Z,19.60
2022-11-01T04:53:21.279Z,19.40
2022-11-01T04:55:53.398Z,20.10
2022-11-01T04:58:25.613Z,22.00
2022-11-01T05:00:57.807Z,20.10
2022-11-01T05:03:29.992Z,23.20
2022-11-01T05:06:03.156Z,19.20
2022-11-01T05:08:35.372Z,18.60
2022-11-01T05:11:07.658Z,23.60
2022-11-01T05:13:39.765Z,20.50
2022-11-01T05:16:19.368Z,23.80
2022-11-01T05:18:52.505Z,21.10
2022-11-01T05:21:24.667Z,22.50
2022-11-01T05:23:56.897Z,19.90
2022-11-01T05:26:29.003Z,26.40
2022-11-01T05:29:08.754Z,22.20
2022-11-01T05:31:45.811Z,23.70
2022-11-01T05:34:17.992Z,24.70
2022-11-01T05:36:50.317Z,22.70
2022-11-01T05:39:22.466Z,22.20
2022-11-01T05:41:56.958Z,22.40
2022-11-01T05:44:32.232Z,20.10
2022-11-01T05:47:06.896Z,19.10
2022-11-01T05:49:44.991Z,21.60
2022-11-01T05:52:21.022Z,21.50
2022-11-01T05:57:23.888Z,18.90
2022-11-01T05:59:56.125Z,20.80
2022-11-01T06:02:28.554Z,22.00
2022-11-01T06:07:38.018Z,19.60
2022-11-01T06:10:11.679Z,28.30
2022-11-01T06:12:43.888Z,19.40
2022-11-01T06:15:19.356Z,20.60
2022-11-01T06:17:53.695Z,18.80
2022-11-01T06:20:29.679Z,22.20
2022-11-01T06:23:09.267Z,18.60
2022-11-01T06:25:45.972Z,24.30
2022-11-01T06:28:20.506Z,18.20
2022-11-01T06:30:53.134Z,23.10
2022-11-01T06:33:27.412Z,22.40
2022-11-01T06:36:04.969Z,25.30
2022-11-01T06:38:42.049Z,19.50
2022-11-01T06:41:15.471Z,23.40
2022-11-01T06:43:50.940Z,23.70
2022-11-01T06:46:24.083Z,25.00
2022-11-01T06:48:58.109Z,21.80
2022-11-01T06:51:30.618Z,18.90
2022-11-01T06:56:36.148Z,21.30
2022-11-01T06:59:09.902Z,27.10
2022-11-01T07:01:42.192Z,24.10
2022-11-01T07:04:17.156Z,22.50
2022-11-01T07:06:50.670Z,19.70
2022-11-01T07:11:58.176Z,26.60
2022-11-01T07:14:34.563Z,26.10
2022-11-01T07:17:09.932Z,23.90
2022-11-01T07:19:44.098Z,25.40
2022-11-01T07:22:16.524Z,24.90
2022-11-01T07:25:07.235Z,22.30
2022-11-01T07:27:39.881Z,28.60
2022-11-01T07:32:49.071Z,24.40
2022-11-01T07:35:21.408Z,22.80
2022-11-01T07:37:53.538Z,30.20
2022-11-01T07:40:28.054Z,30.80
2022-11-01T07:43:01.589Z,29.20
2022-11-01T07:45:35.160Z,30.70
2022-11-01T07:48:11.961Z,25.00
2022-11-01T07:50:45.126Z,26.00
2022-11-01T07:53:20.653Z,26.70
2022-11-01T07:55:53.222Z,37.10
2022-11-01T07:58:27.929Z,26.40
2022-11-01T08:01:00.651Z,26.40
2022-11-01T08:03:33.303Z,23.40
2022-11-01T08:06:05.619Z,29.60
2022-11-01T08:08:38.004Z,25.50
2022-11-01T08:11:10.268Z,24.70
2022-11-01T08:13:42.481Z,22.20
2022-11-01T08:16:18.597Z,30.90
2022-11-01T08:18:51.692Z,26.70
2022-11-01T08:21:24.375Z,21.90
2022-11-01T08:23:56.571Z,24.40
2022-11-01T08:26:29.006Z,21.70
2022-11-01T08:29:01.156Z,22.90
2022-11-01T08:31:33.522Z,21.50
2022-11-01T08:34:05.754Z,16.90
2022-11-01T08:36:37.991Z,24.00
2022-11-01T08:41:51.261Z,18.40
2022-11-01T08:44:23.381Z,18.60
2022-11-01T08:46:58.974Z,17.90
2022-11-01T08:49:31.302Z,17.20
2022-11-01T08:52:03.997Z,18.00
2022-11-01T08:54:37.544Z,19.10
2022-11-01T08:57:09.948Z,15.10
2022-11-01T08:59:42.100Z,18.80
2022-11-01T09:02:14.740Z,19.00
2022-11-01T09:07:17.543Z,17.00
2022-11-01T09:09:49.959Z,17.30
2022-11-01T09:12:24.735Z,16.60
2022-11-01T09:14:59.764Z,14.10
2022-11-01T09:17:32.009Z,14.80
2022-11-01T09:20:05.705Z,19.30
2022-11-01T09:25:12.770Z,16.70
2022-11-01T09:27:44.943Z,17.10
2022-11-01T09:30:17.345Z,14.80
2022-11-01T09:32:49.543Z,17.40
2022-11-01T09:35:22.081Z,12.20
2022-11-01T09:38:00.269Z,16.20
2022-11-01T09:40:39.420Z,15.10
2022-11-01T09:43:14.344Z,19.70
2022-11-01T09:45:46.613Z,15.20
2022-11-01T09:48:19.087Z,20.10
2022-11-01T10:02:09.872Z,15.70
2022-11-01T10:05:02.132Z,17.10
2022-11-01T10:07:42.858Z,14.40
2022-11-01T10:10:28.295Z,12.80
2022-11-01T10:13:14.336Z,12.30
2022-11-01T10:15:53.879Z,15.20
2022-11-01T10:18:36.948Z,13.80
2022-11-01T10:21:14.339Z,16.30
2022-11-01T10:23:50.148Z,15.10
2022-11-01T10:26:26.817Z,12.50
2022-11-01T10:29:03.619Z,20.80
2022-11-01T10:31:41.252Z,14.10
2022-11-01T10:34:20.317Z,14.00
2022-11-01T10:37:31.211Z,19.70
2022-11-01T10:40:09.137Z,16.90
2022-11-01T10:42:42.220Z,14.90
2022-11-01T10:47:49.504Z,15.50
2022-11-01T10:50:24.128Z,16.60
2022-11-01T10:52:58.447Z,16.90
2022-11-01T10:55:35.502Z,13.70
2022-11-01T10:58:11.699Z,16.30
2022-11-01T11:00:45.004Z,15.50
2022-11-01T11:03:22.197Z,16.10
2022-11-01T11:05:55.264Z,12.20
2022-11-01T11:08:27.520Z,14.80
2022-11-01T11:11:04.028Z,17.10
2022-11-01T11:13:38.085Z,12.00
2022-11-01T11:16:19.839Z,14.80
2022-11-01T11:19:06.407Z,15.80
2022-11-01T11:21:38.792Z,15.60
2022-11-01T11:24:19.845Z,15.00
2022-11-01T11:26:54.619Z,13.70
2022-11-01T11:29:48.742Z,11.60
2022-11-01T11:32:23.822Z,15.30
2022-11-01T11:34:58.946Z,13.10
2022-11-01T11:37:33.127Z,16.20
2022-11-01T11:40:24.580Z,14.90
2022-11-01T11:42:58.257Z,19.70
2022-11-01T11:45:32.471Z,13.30
2022-11-01T11:48:20.501Z,10.70
2022-11-01T11:51:03.269Z,15.50
2022-11-01T11:53:35.517Z,13.70
2022-11-01T11:56:09.564Z,20.80
2022-11-01T11:58:44.161Z,15.60
2022-11-01T12:01:21.354Z,14.40
2022-11-01T12:03:56.976Z,17.50
2022-11-01T12:06:30.319Z,13.40
2022-11-01T12:09:04.027Z,15.10
2022-11-01T12:11:42.847Z,12.50
2022-11-01T12:14:26.335Z,16.20
2022-11-01T12:16:58.497Z,15.90
2022-11-01T12:19:31.985Z,14.90
2022-11-01T12:22:05.487Z,17.20
2022-11-01T12:24:44.819Z,23.20
2022-11-01T12:27:21.845Z,19.50
2022-11-01T12:29:56.644Z,16.70
2022-11-01T12:32:30.494Z,14.30
2022-11-01T12:35:05.969Z,14.60
2022-11-01T12:37:48.611Z,12.10
2022-11-01T12:40:23.603Z,11.60
2022-11-01T12:43:01.357Z,13.40
2022-11-01T12:45:35.876Z,17.00
2022-11-01T12:48:24.577Z,14.50
2022-11-01T12:51:21.536Z,10.00
2022-11-01T12:53:59.663Z,17.60
2022-11-01T12:56:31.773Z,14.40
2022-11-01T12:59:04.691Z,14.40
2022-11-01T13:01:42.113Z,13.90
2022-11-01T13:04:21.589Z,15.10
2022-11-01T13:07:11.064Z,16.10
2022-11-01T13:09:50.800Z,13.60
2022-11-01T13:12:29.128Z,10.20
2022-11-01T13:15:08.079Z,16.80
2022-11-01T13:17:46.874Z,12.40
2022-11-01T13:20:29.105Z,18.60
2022-11-01T13:23:09.803Z,13.70
2022-11-01T13:25:46.271Z,11.90
2022-11-01T13:28:28.864Z,17.10
2022-11-01T13:31:05.217Z,17.30
2022-11-01T13:33:43.288Z,14.10
2022-11-01T13:36:21.840Z,10.70
2022-11-01T13:39:03.648Z,13.30
2022-11-01T13:41:40.327Z,13.40
2022-11-01T13:44:16.915Z,12.80
2022-11-01T13:47:06.048Z,16.30
2022-11-01T13:50:09.488Z,24.00
2022-11-01T13:52:46.396Z,15.10
2022-11-01T13:55:23.479Z,15.50
2022-11-01T13:57:56.236Z,15.30
2022-11-01T14:00:44.322Z,10.50
2022-11-01T14:08:16.332Z,10.90
2022-11-01T14:10:53.027Z,12.50
2022-11-01T14:13:37.821Z,13.40
2022-11-01T14:16:23.987Z,12.20
2022-11-01T14:19:30.620Z,11.30
2022-11-01T14:22:02.913Z,12.00
2022-11-01T14:27:25.069Z,10.80
2022-11-01T14:29:58.307Z,14.10
2022-11-01T14:32:32.124Z,11.20
2022-11-01T14:35:10.270Z,12.90
2022-11-01T14:37:44.292Z,14.20
2022-11-01T14:40:34.645Z,15.20
2022-11-01T14:43:15.524Z,16.70
2022-11-01T14:45:49.932Z,15.60
2022-11-01T14:48:25.302Z,16.80
2022-11-01T14:51:03.291Z,16.60
2022-11-01T14:53:37.534Z,16.60
2022-11-01T14:56:16.805Z,31.30
2022-11-01T14:58:49.642Z,28.20
2022-11-01T15:08:12.938Z,20.80
2022-11-01T15:10:51.872Z,27.70
2022-11-01T15:13:27.908Z,23.80
2022-11-01T15:16:08.956Z,25.50
2022-11-01T15:19:04.677Z,29.40
2022-11-01T15:22:03.706Z,18.30
2022-11-01T15:24:39.537Z,23.90
2022-11-01T15:27:26.112Z,27.50
2022-11-01T15:29:59.734Z,26.40
2022-11-01T15:32:36.886Z,25.10
2022-11-01T15:35:24.752Z,32.70
2022-11-01T15:38:03.002Z,31.20
2022-11-01T15:40:58.528Z,21.80
2022-11-01T15:43:39.649Z,26.20
2022-11-01T15:46:13.331Z,27.50
2022-11-01T15:48:53.039Z,32.40
2022-11-01T15:51:38.894Z,21.90
2022-11-01T15:54:40.057Z,24.10
2022-11-01T15:57:20.044Z,17.40
2022-11-01T15:59:57.495Z,24.20
2022-11-01T16:02:35.704Z,19.30
2022-11-01T16:05:09.720Z,20.90
2022-11-01T16:07:42.931Z,19.00
2022-11-01T16:10:20.881Z,24.50
2022-11-01T16:12:54.221Z,22.00
2022-11-01T16:15:29.244Z,22.80
2022-11-01T16:18:02.886Z,21.70
2022-11-01T16:20:37.764Z,26.70
2022-11-01T16:23:12.694Z,25.00
2022-11-01T16:25:44.845Z,30.10
2022-11-01T16:28:39.197Z,25.70
2022-11-01T16:31:23.910Z,31.00
2022-11-01T16:33:57.949Z,24.10
2022-11-01T16:36:42.989Z,29.30
2022-11-01T16:39:31.331Z,28.80
2022-11-01T16:42:03.649Z,30.50
2022-11-01T16:44:35.910Z,25.10
2022-11-01T16:47:08.087Z,32.80
2022-11-01T16:49:48.176Z,29.90
2022-11-01T16:52:20.848Z,31.70
2022-11-01T16:54:53.620Z,42.20
2022-11-01T16:57:28.332Z,30.20
2022-11-01T17:00:01.866Z,32.40
2022-11-01T17:02:35.097Z,22.90
2022-11-01T17:05:17.350Z,26.60
2022-11-01T17:07:49.506Z,31.90
2022-11-01T17:10:25.712Z,31.20
2022-11-01T17:12:58.586Z,27.90
2022-11-01T17:15:39.461Z,33.00
2022-11-01T17:18:14.313Z,34.00
2022-11-01T17:20:49.652Z,30.10
2022-11-01T17:23:25.040Z,37.70
2022-11-01T17:25:58.178Z,36.70
2022-11-01T17:31:01.982Z,34.60
2022-11-01T17:33:35.026Z,43.10
2022-11-01T17:36:08.457Z,40.10
2022-11-01T17:38:42.506Z,37.00
2022-11-01T17:41:21.176Z,36.90
2022-11-01T17:43:53.482Z,33.90
2022-11-01T17:46:27.752Z,27.50
2022-11-01T17:49:01.346Z,37.70
2022-11-01T17:51:34.297Z,42.00
2022-11-01T17:54:06.727Z,40.40
2022-11-01T17:59:10.076Z,53.00
2022-11-01T18:02:01.604Z,63.90
2022-11-01T18:04:36.645Z,83.40
2022-11-01T18:07:12.617Z,73.40
2022-11-01T18:09:45.003Z,80.10
2022-11-01T18:12:22.876Z,84.40
2022-11-01T18:15:05.907Z,90.20
2022-11-01T18:17:46.811Z,84.60
2022-11-01T18:20:31.881Z,75.90
2022-11-01T18:23:07.275Z,101.40
2022-11-01T18:25:43.646Z,97.10
2022-11-01T18:28:17.949Z,93.50
2022-11-01T18:30:54.967Z,89.50
2022-11-01T18:33:34.439Z,81.10
2022-11-01T18:36:10.112Z,85.70
2022-11-01T18:38:45.529Z,80.30
2022-11-01T18:41:23.076Z,81.80
2022-11-01T18:43:58.284Z,77.10
2022-11-01T18:46:37.805Z,92.20
2022-11-01T18:49:13.594Z,87.00
2022-11-01T18:51:54.171Z,85.40
2022-11-01T18:54:31.093Z,76.50
2022-11-01T18:57:17.274Z,76.60
2022-11-01T18:59:54.906Z,81.30
2022-11-01T19:02:33.222Z,72.30
2022-11-01T19:05:51.841Z,87.60
2022-11-01T19:08:39.229Z,69.80
2022-11-01T19:11:15.569Z,70.50
2022-11-01T19:13:52.653Z,63.40
2022-11-01T19:19:25.116Z,78.20
2022-11-01T19:22:24.936Z,74.30
2022-11-01T19:25:02.008Z,63.50
2022-11-01T19:27:38.702Z,64.10
2022-11-01T19:30:34.097Z,71.80
2022-11-01T19:33:17.385Z,73.00
2022-11-01T19:35:58.256Z,74.40
2022-11-01T19:38:59.085Z,72.90
2022-11-01T19:41:37.793Z,66.60
2022-11-01T19:44:18.498Z,69.60
2022-11-01T19:46:57.237Z,72.40
2022-11-01T19:49:35.642Z,77.50
2022-11-01T19:52:30.075Z,82.80
2022-11-01T19:55:48.522Z,71.00
2022-11-01T19:58:49.038Z,59.20
2022-11-01T20:01:47.077Z,60.60
2022-11-01T20:04:29.587Z,68.30
2022-11-01T20:07:17.105Z,68.10
2022-11-01T20:09:58.620Z,68.90
2022-11-01T20:12:35.016Z,58.50
2022-11-01T20:15:17.380Z,65.20
2022-11-01T20:17:54.632Z,70.60
2022-11-01T20:20:59.306Z,71.20
2022-11-01T20:23:42.283Z,65.50
2022-11-01T20:26:17.789Z,64.90
2022-11-01T20:28:56.436Z,66.50
2022-11-01T20:31:30.838Z,78.00
2022-11-01T20:36:49.602Z,69.80
2022-11-01T20:39:40.112Z,67.90
2022-11-01T20:42:33.707Z,86.20
2022-11-01T20:45:12.864Z,76.80
2022-11-01T20:48:02.532Z,58.40
2022-11-01T20:50:42.614Z,71.90
2022-11-01T20:53:29.846Z,66.40
2022-11-01T20:56:15.389Z,66.70
2022-11-01T20:58:50.120Z,66.20
2022-11-01T21:01:25.903Z,64.90
2022-11-01T21:03:58.774Z,61.50
2022-11-01T21:06:32.840Z,63.10
2022-11-01T21:09:33.079Z,70.00
2022-11-01T21:12:25.756Z,63.20
2022-11-01T21:15:03.821Z,61.60
2022-11-01T21:17:38.172Z,60.30
2022-11-01T21:20:26.571Z,61.50
2022-11-01T21:23:02.679Z,67.40
2022-11-01T21:25:38.289Z,69.30
2022-11-01T21:28:22.623Z,59.40
2022-11-01T21:31:27.035Z,74.10
2022-11-01T21:34:03.461Z,56.40
2022-11-01T21:37:03.997Z,67.40
2022-11-01T21:39:39.658Z,65.40
2022-11-01T21:42:36.652Z,69.30
2022-11-01T21:45:31.483Z,72.80
2022-11-01T21:48:22.028Z,66.10
2022-11-01T21:51:04.438Z,71.70
2022-11-01T21:53:37.953Z,77.20
2022-11-01T21:56:11.095Z,62.80
2022-11-01T21:58:45.568Z,69.70
2022-11-01T22:01:18.281Z,66.60
2022-11-01T22:03:56.229Z,66.10
2022-11-01T22:06:28.864Z,66.40
2022-11-01T22:11:34.787Z,68.70
2022-11-01T22:14:09.476Z,69.20
2022-11-01T22:16:43.502Z,64.30
2022-11-01T22:19:19.631Z,69.90
2022-11-01T22:22:09.871Z,66.10
2022-11-01T22:24:47.842Z,64.70
2022-11-01T22:27:23.676Z,61.70
2022-11-01T22:29:59.721Z,68.50
2022-11-01T22:32:31.989Z,41.20
2022-11-01T22:35:04.370Z,34.30
2022-11-01T22:37:37.790Z,39.50
2022-11-01T22:40:15.682Z,52.50
2022-11-01T22:42:48.426Z,49.20
2022-11-01T22:45:21.103Z,50.90
2022-11-01T22:47:53.291Z,65.00
2022-11-01T22:50:28.970Z,64.20
2022-11-01T22:53:01.523Z,58.30
2022-11-01T22:55:40.585Z,63.70
2022-11-01T22:58:29.185Z,57.30
2022-11-01T23:01:02.783Z,59.90
2022-11-01T23:04:10.641Z,50.10
2022-11-01T23:06:43.392Z,60.20
2022-11-01T23:12:13.687Z,51.20
2022-11-01T23:14:46.989Z,48.00
2022-11-01T23:17:32.074Z,39.40
2022-11-01T23:20:05.105Z,41.80
2022-11-01T23:22:38.505Z,35.00
2022-11-01T23:25:12.626Z,36.00
2022-11-01T23:27:46.369Z,40.80
2022-11-01T23:30:20.553Z,37.90
2022-11-01T23:32:52.961Z,32.30
2022-11-01T23:35:25.340Z,43.40
2022-11-01T23:37:59.896Z,33.50
2022-11-01T23:40:34.731Z,54.00
2022-11-01T23:43:19.545Z,41.40
2022-11-01T23:45:52.504Z,35.40
2022-11-01T23:48:25.559Z,33.50
2022-11-01T23:50:57.789Z,32.10
2022-11-01T23:53:35.482Z,35.80
2022-11-01T23:56:10.345Z,38.70
2022-11-01T23:58:42.817Z,35.50
